createdAt,value
2019-06-01T00:01:11.311Z,98.60
2019-06-01T00:03:42.182Z,98.70
2019-06-01T00:06:11.642Z,98.80
2019-06-01T00:08:41.481Z,98.70
2019-06-01T00:11:11.300Z,98.80
2019-06-01T00:13:41.595Z,98.90
2019-06-01T00:16:11.501Z,99.00
2019-06-01T00:18:41.843Z,99.00
2019-06-01T00:21:11.920Z,99.00
2019-06-01T00:23:42.484Z,99.10
2019-06-01T00:26:12.227Z,99.10
2019-06-01T00:28:42.261Z,99.10
2019-06-01T00:31:12.201Z,99.20
2019-06-01T00:33:43.337Z,99.10
2019-06-01T00:36:12.780Z,99.20
2019-06-01T00:38:43.820Z,99.20
2019-06-01T00:41:13.212Z,99.20
2019-06-01T00:43:42.599Z,99.30
2019-06-01T00:46:12.950Z,99.20
2019-06-01T00:48:43.972Z,99.40
2019-06-01T00:51:13.346Z,99.80
2019-06-01T00:53:43.351Z,99.50
2019-06-01T00:56:12.972Z,99.50
2019-06-01T00:58:43.625Z,99.50
2019-06-01T01:01:13.453Z,99.90
2019-06-01T01:03:43.927Z,99.50
2019-06-01T01:06:13.537Z,99.60
2019-06-01T01:08:44.794Z,99.50
2019-06-01T01:11:14.355Z,99.60
2019-06-01T01:13:45.549Z,99.50
2019-06-01T01:16:14.831Z,99.50
2019-06-01T01:18:45.523Z,99.50
2019-06-01T01:21:15.020Z,99.50
2019-06-01T01:23:44.435Z,99.50
2019-06-01T01:26:14.031Z,99.60
2019-06-01T01:28:44.091Z,99.60
2019-06-01T01:31:14.530Z,99.70
2019-06-01T01:33:44.138Z,99.70
2019-06-01T01:36:14.138Z,99.80
2019-06-01T01:38:44.234Z,99.80
2019-06-01T01:41:14.217Z,99.80
2019-06-01T01:43:44.592Z,99.80
2019-06-01T01:46:14.392Z,99.80
2019-06-01T01:48:44.401Z,99.90
2019-06-01T01:51:14.771Z,99.90
2019-06-01T01:53:44.477Z,99.90
2019-06-01T01:56:33.850Z,99.90
2019-06-01T01:59:04.265Z,99.90
2019-06-01T02:01:33.898Z,99.90
2019-06-01T02:04:03.520Z,99.90
2019-06-01T02:06:32.910Z,99.90
2019-06-01T02:09:02.320Z,99.90
2019-06-01T02:11:31.695Z,99.90
2019-06-01T02:14:02.092Z,99.90
2019-06-01T02:16:31.524Z,99.90
2019-06-01T02:19:00.895Z,99.90
2019-06-01T02:21:30.550Z,99.90
2019-06-01T02:24:01.276Z,99.90
2019-06-01T02:26:30.780Z,99.90
2019-06-01T02:29:01.479Z,99.90
2019-06-01T02:31:41.673Z,99.90
2019-06-01T02:34:03.957Z,99.90
2019-06-01T02:36:33.461Z,99.90
2019-06-01T02:39:05.329Z,99.90
2019-06-01T02:41:35.086Z,99.90
2019-06-01T02:44:06.360Z,99.90
2019-06-01T02:46:36.267Z,99.90
2019-06-01T02:49:06.352Z,99.90
2019-06-01T02:51:35.851Z,99.90
2019-06-01T02:54:06.287Z,99.90
2019-06-01T02:56:35.763Z,99.90
2019-06-01T02:59:06.603Z,99.90
2019-06-01T03:01:38.329Z,99.90
2019-06-01T03:04:10.109Z,99.90
2019-06-01T03:06:43.214Z,99.90
2019-06-01T03:09:14.170Z,99.90
2019-06-01T03:11:45.359Z,99.90
2019-06-01T03:14:15.170Z,99.90
2019-06-01T03:16:44.686Z,99.90
2019-06-01T03:19:17.240Z,99.90
2019-06-01T03:21:50.042Z,99.90
2019-06-01T03:24:24.026Z,99.90
2019-06-01T03:26:55.264Z,99.90
2019-06-01T03:29:29.365Z,99.90
2019-06-01T03:32:20.633Z,99.90
2019-06-01T03:34:29.992Z,99.90
2019-06-01T03:37:02.774Z,99.90
2019-06-01T03:39:32.998Z,99.90
2019-06-01T03:42:03.503Z,99.90
2019-06-01T03:44:32.905Z,99.90
2019-06-01T03:47:03.656Z,99.90
2019-06-01T03:49:33.243Z,99.90
2019-06-01T03:52:02.762Z,99.90
2019-06-01T03:54:32.081Z,99.90
2019-06-01T03:57:01.524Z,99.90
2019-06-01T03:59:30.931Z,99.90
2019-06-01T04:02:00.838Z,99.90
2019-06-01T04:04:30.227Z,99.90
2019-06-01T04:06:59.606Z,99.90
2019-06-01T04:09:28.981Z,99.90
2019-06-01T04:11:58.480Z,99.90
2019-06-01T04:14:27.884Z,99.90
2019-06-01T04:16:57.258Z,99.90
2019-06-01T04:19:26.649Z,99.90
2019-06-01T04:21:56.308Z,99.90
2019-06-01T04:24:25.694Z,99.90
2019-06-01T04:26:55.314Z,99.90
2019-06-01T04:29:24.708Z,99.90
2019-06-01T04:31:54.085Z,99.90
2019-06-01T04:34:23.508Z,99.90
2019-06-01T04:36:52.887Z,99.90
2019-06-01T04:39:22.268Z,99.90
2019-06-01T04:41:51.649Z,99.90
2019-06-01T04:44:21.042Z,99.90
2019-06-01T04:46:50.413Z,99.80
2019-06-01T04:49:20.120Z,99.80
2019-06-01T04:51:50.221Z,99.80
2019-06-01T04:54:20.598Z,99.70
2019-06-01T04:56:50.697Z,99.50
2019-06-01T04:59:20.830Z,99.60
2019-06-01T05:01:50.797Z,99.50
2019-06-01T05:04:20.848Z,99.40
2019-06-01T05:06:51.033Z,99.40
2019-06-01T05:09:21.413Z,99.40
2019-06-01T05:11:51.278Z,99.40
2019-06-01T05:14:21.639Z,99.50
2019-06-01T05:16:51.851Z,99.40
2019-06-01T05:19:21.547Z,99.20
2019-06-01T05:21:51.638Z,99.10
2019-06-01T05:24:22.029Z,98.90
2019-06-01T05:26:51.889Z,98.80
2019-06-01T05:29:22.289Z,98.60
2019-06-01T05:31:52.023Z,98.30
2019-06-01T05:34:22.150Z,98.30
2019-06-01T05:36:52.251Z,98.10
2019-06-01T05:39:22.368Z,98.10
2019-06-01T05:41:52.414Z,98.10
2019-06-01T05:44:22.498Z,98.00
2019-06-01T05:46:52.640Z,98.20
2019-06-01T05:49:22.848Z,98.10
2019-06-01T05:51:53.036Z,98.00
2019-06-01T05:54:23.058Z,97.50
2019-06-01T05:56:53.287Z,97.10
2019-06-01T05:59:23.253Z,96.60
2019-06-01T06:01:53.556Z,96.70
2019-06-01T06:04:24.034Z,96.00
2019-06-01T06:06:53.676Z,95.90
2019-06-01T06:09:23.695Z,95.30
2019-06-01T06:11:54.181Z,94.60
2019-06-01T06:14:24.604Z,94.50
2019-06-01T06:16:54.024Z,94.00
2019-06-01T06:19:24.238Z,93.80
2019-06-01T06:21:54.262Z,93.30
2019-06-01T06:24:24.330Z,92.90
2019-06-01T06:26:54.488Z,92.50
2019-06-01T06:29:24.655Z,92.10
2019-06-01T06:31:54.708Z,91.80
2019-06-01T06:34:24.844Z,91.60
2019-06-01T06:36:54.816Z,91.70
2019-06-01T06:39:25.263Z,91.50
2019-06-01T06:41:55.144Z,91.60
2019-06-01T06:44:25.250Z,91.30
2019-06-01T06:46:55.271Z,91.30
2019-06-01T06:49:25.636Z,91.30
2019-06-01T06:51:55.563Z,91.30
2019-06-01T06:54:26.073Z,91.60
2019-06-01T06:56:55.650Z,91.30
2019-06-01T06:59:26.791Z,91.10
2019-06-01T07:01:56.327Z,90.90
2019-06-01T07:04:25.990Z,91.10
2019-06-01T07:06:56.143Z,90.70
2019-06-01T07:09:26.210Z,90.20
2019-06-01T07:11:56.290Z,90.00
2019-06-01T07:14:27.464Z,89.70
2019-06-01T07:16:57.038Z,88.40
2019-06-01T07:19:27.774Z,88.30
2019-06-01T07:21:57.483Z,87.80
2019-06-01T07:24:28.075Z,87.10
2019-06-01T07:26:57.922Z,86.40
2019-06-01T07:29:28.398Z,86.50
2019-06-01T07:31:57.783Z,86.20
2019-06-01T07:34:37.782Z,85.40
2019-06-01T07:36:58.388Z,85.30
2019-06-01T07:39:29.073Z,84.40
2019-06-01T07:41:58.693Z,83.70
2019-06-01T07:44:29.261Z,82.80
2019-06-01T07:46:58.716Z,82.50
2019-06-01T07:49:29.150Z,82.30
2019-06-01T07:51:59.855Z,79.40
2019-06-01T07:54:29.855Z,78.70
2019-06-01T07:56:59.449Z,77.70
2019-06-01T07:59:30.337Z,76.90
2019-06-01T08:01:59.976Z,74.90
2019-06-01T08:04:31.793Z,74.30
2019-06-01T08:07:00.502Z,73.40
2019-06-01T08:09:31.547Z,71.80
2019-06-01T08:12:01.089Z,69.60
2019-06-01T08:14:30.621Z,67.50
2019-06-01T08:16:59.978Z,66.70
2019-06-01T08:19:30.114Z,66.10
2019-06-01T08:21:59.675Z,67.00
2019-06-01T08:24:30.337Z,66.00
2019-06-01T08:27:00.411Z,66.80
2019-06-01T08:29:30.966Z,65.90
2019-06-01T08:32:00.716Z,66.10
2019-06-01T08:34:31.141Z,65.40
2019-06-01T08:37:00.993Z,65.60
2019-06-01T08:39:31.486Z,62.80
2019-06-01T08:42:01.426Z,61.60
2019-06-01T08:44:31.763Z,60.70
2019-06-01T08:47:01.773Z,60.10
2019-06-01T08:49:32.543Z,59.90
2019-06-01T08:52:02.084Z,60.80
2019-06-01T08:54:32.379Z,60.30
2019-06-01T08:57:02.712Z,59.60
2019-06-01T08:59:32.907Z,60.60
2019-06-01T09:02:02.776Z,58.90
2019-06-01T09:04:33.025Z,58.70
2019-06-01T09:07:03.133Z,58.00
2019-06-01T09:09:33.360Z,57.30
2019-06-01T09:12:03.553Z,56.60
2019-06-01T09:14:33.599Z,57.40
2019-06-01T09:17:03.794Z,56.10
2019-06-01T09:19:33.852Z,56.50
2019-06-01T09:22:04.016Z,57.50
2019-06-01T09:24:34.124Z,56.60
2019-06-01T09:27:05.099Z,56.50
2019-06-01T09:29:34.627Z,57.10
2019-06-01T09:32:04.549Z,56.80
2019-06-01T09:34:34.673Z,57.20
2019-06-01T09:37:05.407Z,56.00
2019-06-01T09:39:35.172Z,55.60
2019-06-01T09:42:05.189Z,55.00
2019-06-01T09:44:35.347Z,55.20
2019-06-01T09:47:05.727Z,56.10
2019-06-01T09:49:35.972Z,56.00
2019-06-01T09:52:06.664Z,55.60
2019-06-01T09:54:36.828Z,55.40
2019-06-01T09:57:07.397Z,54.50
2019-06-01T09:59:37.924Z,54.60
2019-06-01T10:02:07.456Z,55.10
2019-06-01T10:04:36.975Z,55.00
2019-06-01T10:07:07.023Z,56.00
2019-06-01T10:09:37.829Z,56.30
2019-06-01T10:12:07.537Z,56.70
2019-06-01T10:14:39.320Z,56.40
2019-06-01T10:17:08.573Z,55.10
2019-06-01T10:19:38.840Z,55.80
2019-06-01T10:22:08.448Z,54.80
2019-06-01T10:24:37.821Z,55.00
2019-06-01T10:27:07.755Z,55.40
2019-06-01T10:29:39.895Z,54.90
2019-06-01T10:32:08.896Z,55.30
2019-06-01T10:34:39.827Z,55.50
2019-06-01T10:37:09.299Z,55.50
2019-06-01T10:39:39.411Z,55.20
2019-06-01T10:42:08.831Z,55.40
2019-06-01T10:44:43.850Z,55.80
2019-06-01T10:47:09.919Z,54.50
2019-06-01T10:49:40.113Z,53.90
2019-06-01T10:52:09.670Z,54.20
2019-06-01T10:54:40.261Z,54.70
2019-06-01T10:57:09.975Z,52.40
2019-06-01T10:59:40.537Z,53.90
2019-06-01T11:02:09.997Z,54.70
2019-06-01T11:04:41.120Z,55.40
2019-06-01T11:07:10.660Z,55.90
2019-06-01T11:09:41.172Z,55.30
2019-06-01T11:12:10.579Z,54.40
2019-06-01T11:14:41.285Z,53.10
2019-06-01T11:17:10.772Z,54.20
2019-06-01T11:19:42.029Z,54.20
2019-06-01T11:22:11.548Z,55.30
2019-06-01T11:24:41.566Z,54.50
2019-06-01T11:27:11.164Z,54.50
2019-06-01T11:29:49.118Z,54.60
2019-06-01T11:32:12.443Z,54.30
2019-06-01T11:34:42.416Z,53.40
2019-06-01T11:37:15.167Z,54.40
2019-06-01T11:39:42.991Z,54.00
2019-06-01T11:42:12.403Z,55.00
2019-06-01T11:44:42.824Z,54.60
2019-06-01T11:47:12.799Z,53.90
2019-06-01T11:49:42.873Z,53.70
2019-06-01T11:52:13.082Z,53.70
2019-06-01T11:54:43.290Z,55.30
2019-06-01T11:57:13.136Z,55.20
2019-06-01T11:59:43.595Z,55.40
2019-06-01T12:02:13.105Z,55.00
2019-06-01T12:04:44.115Z,54.60
2019-06-01T12:07:17.405Z,54.90
2019-06-01T12:09:46.077Z,54.70
2019-06-01T12:12:15.554Z,54.70
2019-06-01T12:14:44.940Z,55.40
2019-06-01T12:17:14.330Z,55.80
2019-06-01T12:19:44.776Z,56.10
2019-06-01T12:22:14.326Z,55.80
2019-06-01T12:24:45.092Z,56.70
2019-06-01T12:27:14.926Z,57.00
2019-06-01T12:29:45.877Z,55.60
2019-06-01T12:32:16.630Z,56.90
2019-06-01T12:34:46.313Z,56.40
2019-06-01T12:37:35.899Z,56.30
2019-06-01T12:39:52.860Z,56.50
2019-06-01T12:42:21.413Z,56.90
2019-06-01T12:44:51.716Z,56.40
2019-06-01T12:47:21.472Z,56.50
2019-06-01T12:49:50.841Z,56.50
2019-06-01T12:52:20.283Z,56.60
2019-06-01T12:54:49.947Z,56.40
2019-06-01T12:57:19.327Z,56.20
2019-06-01T12:59:48.711Z,56.20
2019-06-01T13:02:19.344Z,55.60
2019-06-01T13:04:49.180Z,56.70
2019-06-01T13:07:18.693Z,56.70
2019-06-01T13:09:48.580Z,56.10
2019-06-01T13:12:18.030Z,56.50
2019-06-01T13:14:47.766Z,56.90
2019-06-01T13:17:17.143Z,57.10
2019-06-01T13:19:47.526Z,57.20
2019-06-01T13:22:17.354Z,56.80
2019-06-01T13:24:49.758Z,55.90
2019-06-01T13:27:19.199Z,58.10
2019-06-01T13:29:50.070Z,57.00
2019-06-01T13:32:19.676Z,56.60
2019-06-01T13:34:49.217Z,56.70
2019-06-01T13:37:18.719Z,57.40
2019-06-01T13:39:55.631Z,56.80
2019-06-01T13:42:19.286Z,56.00
2019-06-01T13:44:49.585Z,56.20
2019-06-01T13:47:18.996Z,56.50
2019-06-01T13:49:50.015Z,57.70
2019-06-01T13:52:19.642Z,57.30
2019-06-01T13:54:49.029Z,57.00
2019-06-01T13:57:18.421Z,58.50
2019-06-01T13:59:48.801Z,59.00
2019-06-01T14:02:18.461Z,57.30
2019-06-01T14:04:49.477Z,57.00
2019-06-01T14:07:19.241Z,57.40
2019-06-01T14:09:49.098Z,57.30
2019-06-01T14:12:19.119Z,57.80
2019-06-01T14:14:51.439Z,57.90
2019-06-01T14:17:20.877Z,57.00
2019-06-01T14:19:51.651Z,59.30
2019-06-01T14:22:21.115Z,58.70
2019-06-01T14:25:04.497Z,58.70
2019-06-01T14:27:21.616Z,59.80
2019-06-01T14:29:52.274Z,60.00
2019-06-01T14:32:21.756Z,59.90
2019-06-01T14:34:51.765Z,59.40
2019-06-01T14:37:22.335Z,60.30
2019-06-01T14:39:52.897Z,61.10
2019-06-01T14:42:22.373Z,60.20
2019-06-01T14:44:52.038Z,61.20
2019-06-01T14:47:21.643Z,61.50
2019-06-01T14:49:51.636Z,61.80
2019-06-01T14:52:21.370Z,61.80
2019-06-01T14:54:51.758Z,63.10
2019-06-01T14:57:21.811Z,62.60
2019-06-01T14:59:51.987Z,62.50
2019-06-01T15:02:21.692Z,62.90
2019-06-01T15:04:52.249Z,63.10
2019-06-01T15:07:22.312Z,63.10
2019-06-01T15:09:52.643Z,62.10
2019-06-01T15:12:22.429Z,63.10
2019-06-01T15:14:52.990Z,63.40
2019-06-01T15:17:22.752Z,63.00
2019-06-01T15:19:54.119Z,62.20
2019-06-01T15:22:23.911Z,62.30
2019-06-01T15:24:54.239Z,61.30
2019-06-01T15:27:23.681Z,62.20
2019-06-01T15:29:54.984Z,62.80
2019-06-01T15:32:26.638Z,65.50
2019-06-01T15:34:56.589Z,64.40
2019-06-01T15:37:33.776Z,63.50
2019-06-01T15:40:05.160Z,65.00
2019-06-01T15:42:34.737Z,64.30
2019-06-01T15:45:06.857Z,64.80
2019-06-01T15:47:36.266Z,65.30
2019-06-01T15:50:08.238Z,64.60
2019-06-01T15:52:37.631Z,65.10
2019-06-01T15:55:09.071Z,65.20
2019-06-01T15:57:38.453Z,65.20
2019-06-01T16:00:09.949Z,64.70
2019-06-01T16:02:39.331Z,65.30
2019-06-01T16:05:09.911Z,66.10
2019-06-01T16:07:39.298Z,65.60
2019-06-01T16:10:09.186Z,66.60
2019-06-01T16:12:38.648Z,66.20
2019-06-01T16:15:09.683Z,66.00
2019-06-01T16:17:39.084Z,65.90
2019-06-01T16:20:09.684Z,65.30
2019-06-01T16:22:39.807Z,65.20
2019-06-01T16:25:11.213Z,65.50
2019-06-01T16:27:40.616Z,65.30
2019-06-01T16:30:10.788Z,66.10
2019-06-01T16:32:40.190Z,65.60
2019-06-01T16:35:09.981Z,65.70
2019-06-01T16:37:39.478Z,65.90
2019-06-01T16:40:10.702Z,66.30
2019-06-01T16:42:40.496Z,66.30
2019-06-01T16:45:10.489Z,66.40
2019-06-01T16:47:39.871Z,66.00
2019-06-01T16:50:10.453Z,66.50
2019-06-01T16:52:39.912Z,66.60
2019-06-01T16:55:13.594Z,66.30
2019-06-01T16:57:42.972Z,66.80
2019-06-01T17:00:14.618Z,67.50
2019-06-01T17:02:43.981Z,67.80
2019-06-01T17:05:14.325Z,67.10
2019-06-01T17:07:43.718Z,67.60
2019-06-01T17:10:25.787Z,68.50
2019-06-01T17:12:47.162Z,68.50
2019-06-01T17:15:18.223Z,68.50
2019-06-01T17:17:47.613Z,68.70
2019-06-01T17:20:44.802Z,69.30
2019-06-01T17:23:26.626Z,68.60
2019-06-01T17:25:45.499Z,69.00
2019-06-01T17:28:15.092Z,68.40
2019-06-01T17:30:44.574Z,69.20
2019-06-01T17:33:14.024Z,69.10
2019-06-01T17:35:43.464Z,69.00
2019-06-01T17:38:12.961Z,69.00
2019-06-01T17:40:43.446Z,68.90
2019-06-01T17:43:13.394Z,68.90
2019-06-01T17:45:43.078Z,68.90
2019-06-01T17:48:25.089Z,69.60
2019-06-01T17:50:43.616Z,69.50
2019-06-01T17:53:13.184Z,69.00
2019-06-01T17:55:42.897Z,69.60
2019-06-01T17:58:12.698Z,70.40
2019-06-01T18:00:42.167Z,71.60
2019-06-01T18:03:12.171Z,71.30
2019-06-01T18:05:41.807Z,71.20
2019-06-01T18:08:12.667Z,72.20
2019-06-01T18:10:54.060Z,71.40
2019-06-01T18:13:14.316Z,71.50
2019-06-01T18:15:43.709Z,71.10
2019-06-01T18:18:13.247Z,71.80
2019-06-01T18:20:48.702Z,71.60
2019-06-01T18:23:18.434Z,71.70
2019-06-01T18:25:47.873Z,71.80
2019-06-01T18:28:19.606Z,72.30
2019-06-01T18:30:50.801Z,73.20
2019-06-01T18:33:21.070Z,72.20
2019-06-01T18:35:50.469Z,72.50
2019-06-01T18:38:19.995Z,73.90
2019-06-01T18:40:50.395Z,73.20
2019-06-01T18:43:20.066Z,72.80
2019-06-01T18:45:50.419Z,72.80
2019-06-01T18:48:21.008Z,73.20
2019-06-01T18:50:50.549Z,73.30
2019-06-01T18:53:19.989Z,73.70
2019-06-01T18:55:49.383Z,73.70
2019-06-01T18:58:18.953Z,73.50
2019-06-01T19:00:48.550Z,73.50
2019-06-01T19:03:18.282Z,73.70
2019-06-01T19:05:47.704Z,73.80
2019-06-01T19:08:17.133Z,74.30
2019-06-01T19:10:47.650Z,74.30
2019-06-01T19:13:18.119Z,74.60
2019-06-01T19:15:47.507Z,74.50
2019-06-01T19:18:17.416Z,75.00
2019-06-01T19:20:46.895Z,74.90
2019-06-01T19:23:20.276Z,75.00
2019-06-01T19:25:47.609Z,75.00
2019-06-01T19:28:17.492Z,75.30
2019-06-01T19:30:47.507Z,75.50
2019-06-01T19:33:19.302Z,75.70
2019-06-01T19:35:49.186Z,76.00
2019-06-01T19:38:20.073Z,76.30
2019-06-01T19:40:49.992Z,76.20
2019-06-01T19:43:19.358Z,76.20
2019-06-01T19:45:48.746Z,76.60
2019-06-01T19:48:19.177Z,76.80
2019-06-01T19:50:48.781Z,77.00
2019-06-01T19:53:18.883Z,77.40
2019-06-01T19:55:48.442Z,80.10
2019-06-01T19:58:19.076Z,79.50
2019-06-01T20:00:48.670Z,79.40
2019-06-01T20:03:21.553Z,79.20
2019-06-01T20:05:49.216Z,79.70
2019-06-01T20:08:18.639Z,80.30
2019-06-01T20:10:48.024Z,80.70
2019-06-01T20:13:17.402Z,81.10
2019-06-01T20:15:47.104Z,81.50
2019-06-01T20:18:17.149Z,81.70
2019-06-01T20:20:46.619Z,82.00
2019-06-01T20:23:17.273Z,82.20
2019-06-01T20:25:47.013Z,82.60
2019-06-01T20:28:16.062Z,83.00
2019-06-01T20:30:45.435Z,83.10
2019-06-01T20:33:15.988Z,83.60
2019-06-01T20:35:45.516Z,83.90
2019-06-01T20:38:16.503Z,84.20
2019-06-01T20:40:46.067Z,84.50
2019-06-01T20:43:16.609Z,84.90
2019-06-01T20:45:46.124Z,85.30
2019-06-01T20:48:16.852Z,85.60
2019-06-01T20:50:46.368Z,86.00
2019-06-01T20:53:16.904Z,87.30
2019-06-01T20:55:46.390Z,87.10
2019-06-01T20:58:16.254Z,88.50
2019-06-01T21:00:46.889Z,88.00
2019-06-01T21:03:17.636Z,88.50
2019-06-01T21:05:47.421Z,89.00
2019-06-01T21:08:18.038Z,89.50
2019-06-01T21:10:47.588Z,89.90
2019-06-01T21:13:18.107Z,90.10
2019-06-01T21:15:47.540Z,90.30
2019-06-01T21:18:19.138Z,90.60
2019-06-01T21:20:48.112Z,90.80
2019-06-01T21:23:18.714Z,91.30
2019-06-01T21:25:48.081Z,91.20
2019-06-01T21:28:19.634Z,91.40
2019-06-01T21:30:49.110Z,91.60
2019-06-01T21:33:19.756Z,91.70
2019-06-01T21:35:49.289Z,91.90
2019-06-01T21:38:19.308Z,92.10
2019-06-01T21:40:48.770Z,92.30
2019-06-01T21:43:25.149Z,92.40
2019-06-01T21:45:49.894Z,92.70
2019-06-01T21:48:19.712Z,92.80
2019-06-01T21:50:49.196Z,93.00
2019-06-01T21:53:19.830Z,93.00
2019-06-01T21:55:49.339Z,93.30
2019-06-01T21:58:18.976Z,93.40
2019-06-01T22:00:48.857Z,93.50
2019-06-01T22:03:19.092Z,93.70
2019-06-01T22:05:48.572Z,93.90
2019-06-01T22:08:19.106Z,94.00
2019-06-01T22:10:48.562Z,94.10
2019-06-01T22:13:21.986Z,94.20
2019-06-01T22:15:49.369Z,94.40
2019-06-01T22:18:19.582Z,94.40
2019-06-01T22:20:49.014Z,94.40
2019-06-01T22:23:19.623Z,94.40
2019-06-01T22:25:49.057Z,94.50
2019-06-01T22:28:18.462Z,94.60
2019-06-01T22:30:47.903Z,94.70
2019-06-01T22:33:19.770Z,94.70
2019-06-01T22:35:48.389Z,94.80
2019-06-01T22:38:17.776Z,94.80
2019-06-01T22:40:47.247Z,94.90
2019-06-01T22:43:16.616Z,94.90
2019-06-01T22:45:46.374Z,95.00
2019-06-01T22:48:16.265Z,95.00
2019-06-01T22:50:46.556Z,95.10
2019-06-01T22:53:16.231Z,95.10
2019-06-01T22:55:46.244Z,95.20
2019-06-01T22:58:16.375Z,95.30
2019-06-01T23:00:53.639Z,95.30
2019-06-01T23:03:23.747Z,95.30
2019-06-01T23:05:53.214Z,95.30
2019-06-01T23:08:24.065Z,95.40
2019-06-01T23:10:53.701Z,95.40
2019-06-01T23:13:24.106Z,95.50
2019-06-01T23:15:53.567Z,95.50
2019-06-01T23:18:23.569Z,95.50
2019-06-01T23:20:53.044Z,95.50
2019-06-01T23:23:23.902Z,95.60
2019-06-01T23:25:53.380Z,95.70
2019-06-01T23:28:24.047Z,95.70
2019-06-01T23:30:53.620Z,95.80
2019-06-01T23:33:23.259Z,95.80
2019-06-01T23:35:52.995Z,95.90
2019-06-01T23:38:22.562Z,96.00
2019-06-01T23:41:11.380Z,96.10
2019-06-01T23:43:40.750Z,96.20
2019-06-01T23:46:10.155Z,96.10
2019-06-01T23:48:39.535Z,96.30
2019-06-01T23:51:08.923Z,96.30
2019-06-01T23:53:38.301Z,96.40
2019-06-01T23:56:27.747Z,96.40
2019-06-01T23:58:57.194Z,96.40
